Time;durP1;ratioP1;P1;durP2;ratioP2;P2;SDS_P1;SDS_P2;PMS_P1;PMS_P2;Temp;Humidity;BMP_temperature;BMP_pressure;BME280_temperature;BME280_humidity;BME280_pressure;Samples;Min_cycle;Max_cycle;Signal;HPM_P1;HPM_P2
2023/04/23 00:01:39;;;;;;;36.22;24.35;;;10.00;99.90;;;;;;5040068;28;20122;-76
2023/04/23 00:04:08;;;;;;;36.58;24.45;;;10.10;99.90;;;;;;5057523;28;20095;-77
2023/04/23 00:06:34;;;;;;;35.65;22.73;;;10.20;99.90;;;;;;5086138;28;20069;-77
2023/04/23 00:09:00;;;;;;;36.60;24.52;;;10.00;99.90;;;;;;5062359;28;20098;-77
2023/04/23 00:11:27;;;;;;;38.17;25.20;;;9.90;99.90;;;;;;5083921;28;20035;-78
2023/04/23 00:13:53;;;;;;;43.13;27.58;;;10.40;99.90;;;;;;5044167;28;20632;-78
2023/04/23 00:16:19;;;;;;;42.38;25.23;;;10.20;99.90;;;;;;5031213;28;20045;-80
2023/04/23 00:18:46;;;;;;;46.33;27.63;;;10.20;99.90;;;;;;5039268;28;20567;-79
2023/04/23 00:21:12;;;;;;;59.38;32.28;;;10.10;99.90;;;;;;5065543;28;20068;-76
2023/04/23 00:23:38;;;;;;;59.83;32.50;;;10.10;99.90;;;;;;5062431;28;20068;-79
2023/04/23 00:26:05;;;;;;;57.08;31.52;;;10.00;99.90;;;;;;5064065;28;20044;-76
2023/04/23 00:28:30;;;;;;;52.40;30.23;;;10.40;99.90;;;;;;5033436;28;20045;-77
2023/04/23 00:30:56;;;;;;;58.00;30.08;;;10.20;99.90;;;;;;5063885;28;20048;-79
2023/04/23 00:33:22;;;;;;;54.22;28.88;;;10.30;99.90;;;;;;5038938;28;20040;-77
2023/04/23 00:35:47;;;;;;;53.85;28.50;;;10.10;99.90;;;;;;5056040;28;20086;-77
2023/04/23 00:38:13;;;;;;;51.40;28.02;;;10.50;99.90;;;;;;5058955;28;20079;-79
2023/04/23 00:40:39;;;;;;;53.08;30.02;;;10.20;99.90;;;;;;5060710;28;20056;-80
2023/04/23 00:43:06;;;;;;;56.88;29.98;;;10.50;99.90;;;;;;5065832;28;20416;-77
2023/04/23 00:45:32;;;;;;;48.30;29.02;;;10.10;99.90;;;;;;5035133;28;20053;-80
2023/04/23 00:47:58;;;;;;;50.95;28.70;;;10.20;99.90;;;;;;5084963;28;20459;-79
2023/04/23 00:50:24;;;;;;;48.25;27.10;;;10.00;99.90;;;;;;5054032;28;20044;-80
2023/04/23 00:52:50;;;;;;;49.45;25.48;;;10.40;99.90;;;;;;5028084;28;20041;-83
2023/04/23 00:55:16;;;;;;;42.38;25.45;;;10.20;99.90;;;;;;5076266;28;20472;-79
2023/04/23 00:57:42;;;;;;;45.47;25.35;;;9.90;99.90;;;;;;5038651;28;20045;-78
2023/04/23 01:00:08;;;;;;;50.22;25.67;;;10.40;99.90;;;;;;5030955;28;20131;-82
2023/04/23 01:02:35;;;;;;;44.45;25.45;;;10.20;99.90;;;;;;5081765;28;20075;-76
2023/04/23 01:05:03;;;;;;;48.92;26.98;;;10.30;99.90;;;;;;5055304;28;20056;-79
2023/04/23 01:07:33;;;;;;;54.20;27.58;;;10.40;99.90;;;;;;5059314;28;20092;-77
2023/04/23 01:09:59;;;;;;;48.70;27.67;;;10.50;99.90;;;;;;5053544;28;20301;-76
2023/04/23 01:12:25;;;;;;;49.65;26.02;;;9.90;99.90;;;;;;5034613;28;20029;-80
2023/04/23 01:14:51;;;;;;;47.42;25.10;;;10.40;99.90;;;;;;5055970;28;20415;-80
2023/04/23 01:17:17;;;;;;;57.88;29.10;;;10.50;99.90;;;;;;5045322;28;20041;-81
2023/04/23 01:19:42;;;;;;;44.72;25.38;;;10.20;99.90;;;;;;5021682;28;20411;-79
2023/04/23 01:22:10;;;;;;;48.65;25.88;;;10.30;99.90;;;;;;5052591;28;20038;-76
2023/04/23 01:24:37;;;;;;;45.53;24.50;;;10.40;99.90;;;;;;5055572;28;20041;-78
2023/04/23 01:27:03;;;;;;;45.00;25.15;;;10.00;99.90;;;;;;5054654;28;20263;-77
2023/04/23 01:29:30;;;;;;;48.42;25.63;;;9.90;99.90;;;;;;5051970;28;20040;-76
2023/04/23 01:31:56;;;;;;;47.03;24.77;;;10.20;99.90;;;;;;5036343;28;20052;-79
2023/04/23 01:34:22;;;;;;;49.22;26.92;;;10.20;99.90;;;;;;5058877;28;20040;-76
2023/04/23 01:36:48;;;;;;;44.92;25.92;;;9.90;99.90;;;;;;5062780;28;20033;-77
2023/04/23 01:39:14;;;;;;;43.67;24.88;;;10.30;99.90;;;;;;5031188;28;20048;-78
2023/04/23 01:41:40;;;;;;;50.85;27.63;;;9.80;99.90;;;;;;5060781;28;20127;-76
2023/04/23 01:44:07;;;;;;;43.45;25.20;;;10.30;99.90;;;;;;5065538;28;20091;-76
2023/04/23 01:46:33;;;;;;;57.85;27.13;;;10.00;99.90;;;;;;5028898;28;20041;-79
2023/04/23 01:48:59;;;;;;;47.90;26.10;;;10.00;99.90;;;;;;5045525;28;20421;-79
2023/04/23 01:51:25;;;;;;;48.30;26.63;;;10.20;99.90;;;;;;5020387;28;20045;-79
2023/04/23 01:53:51;;;;;;;44.28;25.13;;;10.20;99.90;;;;;;5038294;28;20051;-76
2023/04/23 01:56:20;;;;;;;48.50;26.13;;;10.20;99.90;;;;;;5044383;28;20458;-81
2023/04/23 01:58:46;;;;;;;47.10;27.08;;;10.10;99.90;;;;;;5031783;28;20417;-81
2023/04/23 02:01:12;;;;;;;45.85;26.27;;;10.20;99.90;;;;;;5030036;28;20123;-78
2023/04/23 02:03:37;;;;;;;52.83;27.88;;;9.80;99.90;;;;;;5064059;28;20447;-76
2023/04/23 02:06:03;;;;;;;51.13;27.92;;;10.20;99.90;;;;;;5057957;28;20067;-79
2023/04/23 02:08:29;;;;;;;42.95;26.63;;;9.60;99.90;;;;;;5052403;28;22094;-77
2023/04/23 02:10:55;;;;;;;54.03;27.63;;;9.60;99.90;;;;;;5058951;28;20047;-79
2023/04/23 02:13:21;;;;;;;46.00;27.23;;;9.50;99.90;;;;;;5043820;28;20047;-79
2023/04/23 02:15:47;;;;;;;52.00;29.98;;;9.90;99.90;;;;;;5037250;28;21978;-76
2023/04/23 02:18:12;;;;;;;43.58;25.25;;;9.40;99.90;;;;;;5047176;28;20470;-78
2023/04/23 02:20:40;;;;;;;44.78;27.35;;;10.00;99.90;;;;;;5052298;28;20044;-79
2023/04/23 02:23:09;;;;;;;51.22;29.42;;;9.40;99.90;;;;;;5003807;28;20037;-77
2023/04/23 02:25:38;;;;;;;44.67;28.02;;;9.10;99.90;;;;;;5037284;28;20098;-77
2023/04/23 02:28:06;;;;;;;46.75;28.13;;;10.00;99.90;;;;;;5054119;28;20391;-77
2023/04/23 02:30:32;;;;;;;45.63;26.90;;;9.90;99.90;;;;;;5046923;28;20350;-76
2023/04/23 02:32:58;;;;;;;47.45;27.77;;;10.00;99.90;;;;;;5034174;28;20127;-80
2023/04/23 02:35:24;;;;;;;49.90;29.10;;;9.50;99.90;;;;;;5065396;28;20568;-76
2023/04/23 02:37:50;;;;;;;51.20;28.00;;;9.80;99.90;;;;;;5049682;28;20037;-77
2023/04/23 02:40:16;;;;;;;47.85;29.55;;;9.40;99.90;;;;;;5052725;28;20559;-77
2023/04/23 02:42:41;;;;;;;46.45;27.52;;;9.70;99.90;;;;;;5065871;28;20389;-78
2023/04/23 02:45:07;;;;;;;53.92;31.08;;;9.70;99.90;;;;;;5038855;28;20045;-82
2023/04/23 02:47:33;;;;;;;52.25;31.30;;;9.30;99.90;;;;;;5085477;28;20436;-80
2023/04/23 02:50:02;;;;;;;54.20;31.00;;;9.30;99.90;;;;;;5040212;28;20045;-78
2023/04/23 02:52:27;;;;;;;67.78;36.30;;;9.70;99.90;;;;;;5053725;28;20110;-76
2023/04/23 02:54:53;;;;;;;57.30;33.92;;;9.70;99.90;;;;;;5051291;28;20411;-77
2023/04/23 02:57:20;;;;;;;60.65;33.70;;;9.90;99.90;;;;;;5036943;28;20044;-77
2023/04/23 02:59:45;;;;;;;67.93;35.58;;;9.60;99.90;;;;;;5056683;28;20393;-79
2023/04/23 03:02:11;;;;;;;61.25;34.20;;;9.40;99.90;;;;;;5038143;28;20033;-77
2023/04/23 03:04:37;;;;;;;75.15;36.67;;;9.90;99.90;;;;;;5036425;28;20650;-75
2023/04/23 03:07:02;;;;;;;67.20;37.05;;;9.30;99.90;;;;;;5034081;28;20044;-77
2023/04/23 03:09:28;;;;;;;57.17;33.75;;;9.50;99.90;;;;;;5039863;28;20059;-75
2023/04/23 03:11:54;;;;;;;60.38;34.60;;;9.40;99.90;;;;;;5032651;28;20037;-76
2023/04/23 03:14:20;;;;;;;59.22;35.55;;;9.50;99.90;;;;;;5063783;28;20040;-78
2023/04/23 03:16:45;;;;;;;69.35;38.85;;;9.60;99.90;;;;;;5064985;28;20048;-78
2023/04/23 03:19:11;;;;;;;63.13;35.58;;;9.80;99.90;;;;;;5035829;28;20040;-76
2023/04/23 03:21:37;;;;;;;72.75;38.45;;;9.30;99.90;;;;;;5058120;28;20090;-77
2023/04/23 03:24:02;;;;;;;57.90;35.40;;;9.50;99.90;;;;;;5043030;28;20037;-78
2023/04/23 03:26:28;;;;;;;61.20;35.10;;;9.20;99.90;;;;;;5017737;28;20037;-77
2023/04/23 03:28:54;;;;;;;63.97;35.33;;;9.60;99.90;;;;;;5013045;28;20122;-80
2023/04/23 03:31:20;;;;;;;64.95;33.95;;;9.10;99.90;;;;;;5049879;28;20552;-78
2023/04/23 03:33:45;;;;;;;70.35;35.83;;;9.70;99.90;;;;;;5022444;28;20067;-80
2023/04/23 03:36:11;;;;;;;59.00;34.65;;;9.50;99.90;;;;;;5015546;28;20052;-79
2023/04/23 03:38:37;;;;;;;52.22;32.72;;;9.60;99.90;;;;;;5061414;28;20423;-79
2023/04/23 03:41:03;;;;;;;64.53;35.35;;;9.40;99.90;;;;;;5051792;28;20036;-76
2023/04/23 03:43:29;;;;;;;63.13;35.35;;;9.50;99.90;;;;;;5011408;28;20603;-77
2023/04/23 03:45:54;;;;;;;66.40;34.40;;;9.00;99.90;;;;;;5042107;28;20083;-81
2023/04/23 03:48:20;;;;;;;70.32;36.00;;;9.30;99.90;;;;;;5026066;28;20058;-79
2023/04/23 03:50:46;;;;;;;64.20;34.47;;;8.90;99.90;;;;;;5022860;28;20039;-81
2023/04/23 03:53:12;;;;;;;74.47;35.88;;;9.50;99.90;;;;;;5038926;28;20045;-76
2023/04/23 03:55:37;;;;;;;60.55;31.92;;;8.80;99.90;;;;;;5053780;28;20041;-80
2023/04/23 03:58:03;;;;;;;58.75;33.00;;;9.50;99.90;;;;;;5074125;28;20044;-76
2023/04/23 04:00:29;;;;;;;67.28;35.97;;;8.90;99.90;;;;;;5033803;28;20037;-77
2023/04/23 04:02:54;;;;;;;70.22;36.78;;;8.90;99.90;;;;;;5027878;28;20050;-76
2023/04/23 04:05:21;;;;;;;62.80;34.75;;;9.00;99.90;;;;;;5066632;28;20396;-75
2023/04/23 04:07:47;;;;;;;66.63;35.95;;;8.80;99.90;;;;;;5024211;28;20040;-74
2023/04/23 04:10:14;;;;;;;72.65;37.80;;;9.40;99.90;;;;;;5067389;28;20032;-76
2023/04/23 04:12:41;;;;;;;73.43;36.00;;;9.20;99.90;;;;;;5045024;28;20806;-77
2023/04/23 04:15:07;;;;;;;71.85;35.33;;;9.00;99.90;;;;;;5041216;28;20032;-77
2023/04/23 04:17:33;;;;;;;73.43;37.97;;;9.40;99.90;;;;;;5045437;28;20086;-77
2023/04/23 04:19:59;;;;;;;68.80;35.95;;;9.00;99.90;;;;;;5057155;28;20303;-74
2023/04/23 04:22:24;;;;;;;67.60;37.67;;;9.10;99.90;;;;;;5047861;28;20471;-78
2023/04/23 04:24:51;;;;;;;62.72;34.70;;;9.30;99.90;;;;;;5051818;28;20174;-79
2023/04/23 04:27:17;;;;;;;79.13;37.22;;;9.50;99.90;;;;;;5064611;28;20065;-78
2023/04/23 04:29:43;;;;;;;75.40;38.72;;;9.60;99.90;;;;;;5058116;28;20127;-78
2023/04/23 04:32:10;;;;;;;75.28;40.55;;;9.60;99.90;;;;;;5032560;28;20170;-77
2023/04/23 04:34:37;;;;;;;66.68;34.67;;;9.10;99.90;;;;;;5059521;28;20132;-79
2023/04/23 04:37:02;;;;;;;80.97;39.20;;;9.30;99.90;;;;;;5061101;28;20044;-77
2023/04/23 04:39:28;;;;;;;66.68;35.22;;;9.60;99.90;;;;;;5061711;28;20043;-79
2023/04/23 04:41:54;;;;;;;72.47;37.75;;;9.20;99.90;;;;;;5045198;28;20052;-82
2023/04/23 04:44:20;;;;;;;69.25;37.97;;;9.80;99.90;;;;;;5055913;28;20476;-78
2023/04/23 04:46:46;;;;;;;88.47;42.40;;;9.40;99.90;;;;;;5052685;28;20489;-78
2023/04/23 04:49:12;;;;;;;85.00;43.35;;;9.10;99.90;;;;;;5083015;28;20040;-77
2023/04/23 04:51:40;;;;;;;84.63;42.90;;;9.80;99.90;;;;;;5043187;28;20708;-76
2023/04/23 04:54:06;;;;;;;84.10;41.63;;;9.90;99.90;;;;;;5039445;28;20609;-75
2023/04/23 04:56:35;;;;;;;77.80;42.90;;;10.00;99.90;;;;;;5057077;28;20397;-77
2023/04/23 04:59:01;;;;;;;79.32;43.28;;;9.20;99.90;;;;;;5055268;28;20033;-77
2023/04/23 05:01:28;;;;;;;74.28;40.50;;;9.30;99.90;;;;;;5031755;28;20056;-81
2023/04/23 05:03:55;;;;;;;83.10;43.10;;;10.00;99.90;;;;;;5031923;28;20040;-76
2023/04/23 05:06:21;;;;;;;71.95;38.35;;;9.60;99.90;;;;;;5064326;28;20178;-79
2023/04/23 05:08:47;;;;;;;71.25;38.15;;;10.10;99.90;;;;;;5059012;28;20036;-77
2023/04/23 05:11:17;;;;;;;95.80;42.40;;;9.60;99.90;;;;;;5068109;28;20404;-76
2023/04/23 05:13:44;;;;;;;113.80;50.25;;;10.10;99.90;;;;;;5055290;28;20052;-80
2023/04/23 05:16:13;;;;;;;114.55;48.00;;;10.00;99.90;;;;;;5044229;28;20477;-77
2023/04/23 05:18:40;;;;;;;126.97;51.58;;;10.20;99.90;;;;;;5030909;28;20045;-82
2023/04/23 05:21:06;;;;;;;136.05;52.25;;;10.10;99.90;;;;;;5061252;28;20047;-80
2023/04/23 05:23:33;;;;;;;117.32;46.65;;;10.00;99.90;;;;;;5049778;28;20041;-82
2023/04/23 05:25:58;;;;;;;65.05;31.73;;;9.50;99.90;;;;;;5057745;28;20045;-79
2023/04/23 05:28:24;;;;;;;163.48;52.40;;;9.50;99.90;;;;;;5061327;28;20126;-79
2023/04/23 05:30:51;;;;;;;170.30;53.25;;;9.30;99.90;;;;;;5053209;28;20456;-81
2023/04/23 05:33:17;;;;;;;187.63;57.53;;;10.30;99.90;;;;;;5061845;28;20037;-77
2023/04/23 05:35:42;;;;;;;117.18;49.30;;;10.30;99.90;;;;;;5029082;28;20129;-81
2023/04/23 05:38:08;;;;;;;121.18;47.13;;;10.40;99.90;;;;;;5047342;28;20045;-77
2023/04/23 05:40:34;;;;;;;83.97;41.33;;;10.40;99.90;;;;;;5038923;28;20051;-78
2023/04/23 05:43:00;;;;;;;82.75;40.33;;;10.10;99.90;;;;;;5030108;28;20040;-75
2023/04/23 05:45:26;;;;;;;145.32;54.67;;;9.60;99.90;;;;;;5036297;28;20049;-78
2023/04/23 05:47:52;;;;;;;97.50;44.15;;;9.90;99.90;;;;;;5037025;28;20032;-78
2023/04/23 05:50:18;;;;;;;106.15;47.17;;;10.50;99.90;;;;;;5060902;28;20060;-78
2023/04/23 05:52:44;;;;;;;101.88;50.00;;;10.70;99.90;;;;;;5062071;28;20040;-76
2023/04/23 05:55:10;;;;;;;122.65;53.15;;;9.90;99.90;;;;;;5006402;28;20087;-78
2023/04/23 05:57:37;;;;;;;102.25;51.22;;;9.80;99.90;;;;;;5022550;28;20055;-81
2023/04/23 06:00:04;;;;;;;139.13;56.35;;;10.10;99.90;;;;;;5049834;28;20213;-75
2023/04/23 06:02:32;;;;;;;102.60;49.20;;;11.00;99.90;;;;;;5041724;28;20052;-75
2023/04/23 06:04:58;;;;;;;140.77;57.80;;;10.30;99.90;;;;;;5034208;28;20418;-79
2023/04/23 06:07:24;;;;;;;128.82;55.20;;;10.10;99.90;;;;;;5064911;28;20046;-79
2023/04/23 06:09:49;;;;;;;119.60;54.95;;;11.00;99.90;;;;;;5049515;28;20032;-75
2023/04/23 06:12:15;;;;;;;111.93;51.45;;;10.40;99.90;;;;;;5054640;28;20043;-78
2023/04/23 06:14:41;;;;;;;129.02;54.15;;;11.10;99.90;;;;;;5049201;28;20045;-79
2023/04/23 06:17:06;;;;;;;103.03;50.92;;;11.20;99.90;;;;;;5047556;28;20540;-81
2023/04/23 06:19:32;;;;;;;128.13;55.05;;;10.90;99.90;;;;;;5055792;28;20040;-78
2023/04/23 06:21:58;;;;;;;129.02;56.67;;;10.70;99.90;;;;;;5039846;28;20048;-79
2023/04/23 06:24:24;;;;;;;101.57;48.35;;;10.60;99.90;;;;;;5048873;28;20032;-77
2023/04/23 06:26:50;;;;;;;116.97;53.05;;;10.70;99.90;;;;;;5057169;28;20048;-76
2023/04/23 06:29:16;;;;;;;86.18;41.08;;;10.80;99.90;;;;;;5025986;28;20045;-81
2023/04/23 06:31:41;;;;;;;121.22;55.70;;;10.70;99.90;;;;;;5052626;28;20124;-80
2023/04/23 06:34:07;;;;;;;110.35;50.70;;;11.80;99.90;;;;;;5034015;28;20044;-77
2023/04/23 06:36:34;;;;;;;98.25;49.83;;;11.70;99.90;;;;;;5058632;28;20036;-78
2023/04/23 06:38:59;;;;;;;100.05;47.92;;;10.80;99.90;;;;;;5066948;28;20044;-75
2023/04/23 06:41:25;;;;;;;93.93;48.25;;;12.00;99.90;;;;;;5057516;28;20399;-79
2023/04/23 06:43:51;;;;;;;85.15;43.45;;;12.20;99.90;;;;;;5036518;28;20041;-75
2023/04/23 06:46:16;;;;;;;77.18;41.95;;;12.10;99.90;;;;;;5035994;28;20072;-80
2023/04/23 06:48:42;;;;;;;90.03;46.38;;;12.40;99.90;;;;;;5051299;28;20041;-76
2023/04/23 06:51:08;;;;;;;81.05;42.90;;;12.40;99.90;;;;;;5023180;28;20043;-76
2023/04/23 06:53:34;;;;;;;62.58;33.90;;;11.80;99.90;;;;;;5039277;28;20033;-75
2023/04/23 06:55:59;;;;;;;67.85;36.42;;;12.00;99.90;;;;;;5026522;28;20075;-77
2023/04/23 06:58:30;;;;;;;69.10;39.95;;;12.60;99.90;;;;;;5033570;28;20041;-76
2023/04/23 07:01:00;;;;;;;78.47;43.72;;;12.50;99.90;;;;;;5038259;28;20119;-77
2023/04/23 07:03:27;;;;;;;59.92;32.58;;;12.70;99.90;;;;;;5056189;28;20484;-75
2023/04/23 07:05:53;;;;;;;59.08;33.55;;;13.20;99.90;;;;;;5054563;28;20052;-76
2023/04/23 07:08:20;;;;;;;66.90;40.30;;;12.80;99.90;;;;;;5035269;28;20040;-75
2023/04/23 07:10:46;;;;;;;62.15;37.15;;;12.80;99.90;;;;;;5079507;28;20037;-76
2023/04/23 07:13:12;;;;;;;56.92;30.80;;;13.00;99.90;;;;;;5035473;28;20052;-75
2023/04/23 07:15:38;;;;;;;57.47;31.77;;;12.80;99.90;;;;;;5026873;28;20041;-76
2023/04/23 07:18:07;;;;;;;61.08;35.63;;;13.40;99.90;;;;;;5042013;28;20047;-76
2023/04/23 07:20:32;;;;;;;60.67;35.88;;;13.20;99.90;;;;;;5050416;28;20039;-74
2023/04/23 07:22:58;;;;;;;55.58;31.27;;;12.80;99.90;;;;;;5046441;28;20416;-75
2023/04/23 07:25:25;;;;;;;55.72;34.15;;;13.40;99.90;;;;;;5066229;28;20040;-79
2023/04/23 07:27:52;;;;;;;51.10;31.38;;;13.30;99.90;;;;;;5017482;28;20041;-74
2023/04/23 07:30:19;;;;;;;56.53;35.30;;;13.70;99.90;;;;;;5044671;28;20240;-76
2023/04/23 07:32:45;;;;;;;54.70;32.15;;;13.00;99.90;;;;;;5041711;28;20095;-76
2023/04/23 07:35:11;;;;;;;45.33;25.42;;;13.60;99.90;;;;;;5044476;28;20044;-76
2023/04/23 07:37:37;;;;;;;49.55;31.65;;;13.20;99.90;;;;;;5042533;28;20040;-79
2023/04/23 07:40:04;;;;;;;55.05;32.40;;;13.30;99.90;;;;;;5049506;28;20120;-76
2023/04/23 07:42:30;;;;;;;51.88;32.30;;;13.80;99.90;;;;;;5064891;28;20048;-78
2023/04/23 07:44:56;;;;;;;50.70;32.50;;;13.90;99.90;;;;;;5053717;28;20053;-77
2023/04/23 07:47:22;;;;;;;49.83;32.17;;;14.30;99.90;;;;;;5052980;28;20032;-76
2023/04/23 07:49:48;;;;;;;47.03;29.98;;;14.30;99.90;;;;;;5033371;28;20117;-77
2023/04/23 07:52:15;;;;;;;37.40;22.00;;;14.40;99.90;;;;;;5056174;28;20101;-76
2023/04/23 07:54:41;;;;;;;47.75;30.52;;;14.30;99.90;;;;;;5058056;28;20051;-78
2023/04/23 07:57:07;;;;;;;44.95;30.45;;;14.20;99.90;;;;;;5031820;28;20037;-79
2023/04/23 07:59:32;;;;;;;42.03;27.48;;;14.90;99.90;;;;;;5039261;28;20121;-77
2023/04/23 08:01:58;;;;;;;45.50;30.23;;;14.70;99.90;;;;;;5049404;28;20040;-76
2023/04/23 08:04:24;;;;;;;32.75;19.23;;;15.10;99.90;;;;;;5065443;28;20089;-77
2023/04/23 08:06:50;;;;;;;38.95;26.95;;;14.50;99.90;;;;;;5065607;28;20396;-78
2023/04/23 08:09:16;;;;;;;38.30;27.30;;;14.50;99.90;;;;;;5061548;28;20033;-77
2023/04/23 08:11:42;;;;;;;38.97;27.35;;;14.50;99.90;;;;;;5027944;28;20033;-80
2023/04/23 08:14:07;;;;;;;35.83;25.08;;;14.70;99.90;;;;;;5057733;28;20384;-77
2023/04/23 08:16:36;;;;;;;39.05;26.70;;;15.00;99.90;;;;;;5070689;28;20036;-77
2023/04/23 08:19:03;;;;;;;31.48;21.70;;;14.90;99.90;;;;;;5068835;28;20400;-76
2023/04/23 08:21:30;;;;;;;37.70;26.05;;;15.50;99.90;;;;;;5034925;28;20048;-76
2023/04/23 08:23:56;;;;;;;34.95;25.30;;;15.60;99.90;;;;;;5047431;28;20044;-77
2023/04/23 08:26:22;;;;;;;35.15;26.10;;;15.40;99.90;;;;;;5038367;28;20066;-76
2023/04/23 08:28:48;;;;;;;36.53;25.40;;;16.30;99.90;;;;;;5045118;28;20037;-77
2023/04/23 08:31:15;;;;;;;31.50;22.98;;;15.70;99.90;;;;;;5065636;28;20035;-77
2023/04/23 08:33:41;;;;;;;33.28;23.70;;;16.10;99.90;;;;;;5053328;28;20067;-76
2023/04/23 08:36:06;;;;;;;32.20;23.63;;;16.30;99.90;;;;;;5036824;28;20487;-77
2023/04/23 08:38:32;;;;;;;31.83;23.25;;;16.30;99.90;;;;;;5040967;28;20036;-77
2023/04/23 08:40:59;;;;;;;30.70;22.90;;;16.20;99.90;;;;;;5058060;28;20307;-76
2023/04/23 08:43:32;;;;;;;30.50;22.45;;;16.20;99.90;;;;;;5041795;28;20094;-75
2023/04/23 08:46:03;;;;;;;29.73;21.95;;;16.10;99.90;;;;;;5047983;28;20131;-77
2023/04/23 08:48:30;;;;;;;31.75;22.73;;;15.80;99.90;;;;;;5060445;28;20477;-78
2023/04/23 08:50:58;;;;;;;35.42;24.98;;;16.10;99.90;;;;;;5035368;28;20557;-78
2023/04/23 08:53:27;;;;;;;26.63;18.65;;;16.30;99.90;;;;;;5034198;28;20638;-79
2023/04/23 08:55:54;;;;;;;35.78;24.13;;;16.40;99.90;;;;;;5062886;28;20048;-79
2023/04/23 08:58:21;;;;;;;28.40;21.95;;;16.40;99.90;;;;;;5049950;28;20169;-78
2023/04/23 09:00:49;;;;;;;31.25;21.50;;;16.70;99.90;;;;;;5067537;28;20127;-82
2023/04/23 09:03:19;;;;;;;28.27;20.20;;;17.10;99.90;;;;;;5065259;28;20048;-78
2023/04/23 09:05:45;;;;;;;25.48;18.60;;;17.30;99.90;;;;;;5046186;28;20043;-78
2023/04/23 09:08:11;;;;;;;25.20;20.02;;;17.30;99.90;;;;;;5054675;28;20037;-79
2023/04/23 09:10:41;;;;;;;26.10;18.67;;;17.70;99.90;;;;;;5030646;28;20032;-80
2023/04/23 09:13:07;;;;;;;25.42;19.23;;;17.60;99.90;;;;;;5050106;28;20044;-79
2023/04/23 09:15:37;;;;;;;25.15;18.77;;;17.70;99.90;;;;;;5046719;28;20036;-78
2023/04/23 09:18:03;;;;;;;24.05;18.13;;;17.80;99.90;;;;;;5065491;28;20052;-79
2023/04/23 09:20:29;;;;;;;23.33;17.27;;;18.10;99.90;;;;;;5051061;28;20101;-78
2023/04/23 09:22:55;;;;;;;22.48;15.82;;;18.20;99.90;;;;;;5017677;28;20037;-79
2023/04/23 09:25:22;;;;;;;22.33;16.83;;;18.30;99.90;;;;;;5046568;28;20041;-79
2023/04/23 09:27:50;;;;;;;20.98;15.68;;;18.30;99.90;;;;;;5045057;28;20194;-79
2023/04/23 09:30:17;;;;;;;16.13;13.63;;;18.80;99.90;;;;;;5067447;28;20044;-79
2023/04/23 09:32:44;;;;;;;18.27;14.48;;;19.10;99.90;;;;;;5067868;28;20507;-79
2023/04/23 09:35:15;;;;;;;15.50;12.23;;;19.00;99.90;;;;;;5048157;28;20040;-81
2023/04/23 09:37:43;;;;;;;17.88;11.95;;;19.60;99.90;;;;;;5065175;28;20056;-79
2023/04/23 09:40:14;;;;;;;13.73;11.68;;;20.00;99.90;;;;;;5067270;28;20044;-80
2023/04/23 09:42:40;;;;;;;15.98;12.48;;;20.10;99.90;;;;;;5067764;28;20059;-80
2023/04/23 09:45:09;;;;;;;17.20;13.35;;;19.90;99.90;;;;;;5063131;28;20370;-79
2023/04/23 09:47:55;;;;;;;14.13;10.68;;;19.80;99.90;;;;;;5033225;28;20133;-78
2023/04/23 09:50:38;;;;;;;15.32;11.30;;;19.30;99.90;;;;;;5033580;28;20044;-77
2023/04/23 09:53:06;;;;;;;15.63;11.50;;;19.60;99.90;;;;;;5067637;28;20051;-78
2023/04/23 09:55:41;;;;;;;14.88;10.57;;;19.50;99.90;;;;;;5049454;28;20102;-78
2023/04/23 09:58:12;;;;;;;13.05;10.18;;;19.80;99.90;;;;;;5077282;28;20129;-78
2023/04/23 10:00:39;;;;;;;12.52;8.15;;;19.40;99.90;;;;;;5050716;28;20631;-79
2023/04/23 10:03:07;;;;;;;14.48;10.05;;;19.20;99.90;;;;;;5051021;28;20072;-78
2023/04/23 10:05:39;;;;;;;11.70;9.50;;;19.40;99.90;;;;;;5049551;28;20041;-77
2023/04/23 10:08:05;;;;;;;11.70;8.90;;;19.90;99.90;;;;;;5047457;28;20037;-78
2023/04/23 10:10:33;;;;;;;10.75;6.95;;;19.80;99.90;;;;;;5047396;28;20114;-79
2023/04/23 10:13:00;;;;;;;14.25;9.80;;;19.10;99.90;;;;;;5047635;28;20106;-77
2023/04/23 10:15:26;;;;;;;12.82;8.90;;;18.80;99.90;;;;;;5030426;28;20076;-77
2023/04/23 10:17:53;;;;;;;11.65;7.78;;;18.80;99.90;;;;;;5052859;28;20667;-80
2023/04/23 10:20:23;;;;;;;8.55;6.63;;;19.50;99.90;;;;;;5045241;28;20123;-80
2023/04/23 10:22:51;;;;;;;9.65;7.13;;;19.70;99.90;;;;;;5066301;28;20097;-79
2023/04/23 10:25:20;;;;;;;10.45;6.50;;;19.80;99.90;;;;;;5050252;28;20082;-78
2023/04/23 10:27:48;;;;;;;11.35;6.50;;;19.40;99.90;;;;;;5048873;28;20087;-80
2023/04/23 10:30:13;;;;;;;8.85;6.63;;;19.80;99.90;;;;;;5049009;28;20067;-80
2023/04/23 10:32:40;;;;;;;9.55;7.00;;;20.20;99.90;;;;;;5033882;28;20385;-79
2023/04/23 10:35:07;;;;;;;10.02;6.78;;;20.60;99.90;;;;;;5054263;28;20130;-80
2023/04/23 10:37:34;;;;;;;10.85;6.05;;;20.80;99.90;;;;;;5063407;28;20044;-79
2023/04/23 10:40:13;;;;;;;7.95;5.57;;;20.40;99.90;;;;;;5082541;28;20029;-80
2023/04/23 10:42:48;;;;;;;6.75;4.50;;;20.00;99.90;;;;;;5028743;28;20040;-79
2023/04/23 10:45:15;;;;;;;9.23;5.05;;;19.70;99.90;;;;;;5075141;28;20044;-79
2023/04/23 10:47:44;;;;;;;9.13;4.75;;;19.50;99.90;;;;;;5047407;28;20049;-78
2023/04/23 10:50:24;;;;;;;7.70;4.75;;;19.30;99.90;;;;;;5063144;28;20699;-79
2023/04/23 10:52:52;;;;;;;9.63;5.32;;;19.30;99.90;;;;;;5050982;28;20064;-80
2023/04/23 10:55:24;;;;;;;10.80;5.38;;;19.40;99.90;;;;;;5051061;28;20087;-79
2023/04/23 10:58:06;;;;;;;7.85;5.28;;;19.20;99.90;;;;;;5052931;28;20028;-80
2023/04/23 11:00:44;;;;;;;9.50;5.65;;;19.10;99.90;;;;;;5068556;28;20070;-79
2023/04/23 11:03:38;;;;;;;9.50;5.35;;;21.10;99.90;;;;;;5034646;28;20041;-80
2023/04/23 11:06:05;;;;;;;7.77;4.93;;;20.30;99.90;;;;;;5054311;28;20132;-81
2023/04/23 11:08:33;;;;;;;9.55;5.20;;;19.90;99.90;;;;;;5053361;28;20055;-80
2023/04/23 11:11:00;;;;;;;7.93;4.68;;;19.60;99.90;;;;;;5035531;28;20074;-80
2023/04/23 11:13:28;;;;;;;9.30;5.22;;;19.50;99.90;;;;;;5036055;28;20047;-79
2023/04/23 11:16:14;;;;;;;7.78;4.68;;;19.60;99.90;;;;;;5034008;28;20080;-81
2023/04/23 11:19:02;;;;;;;7.63;4.20;;;20.50;99.90;;;;;;5051682;28;20047;-78
2023/04/23 11:21:59;;;;;;;6.32;3.60;;;20.00;71.60;;;;;;5066605;28;20033;-81
2023/04/23 11:24:31;;;;;;;7.40;4.20;;;19.50;77.40;;;;;;5023471;28;20535;-81
2023/04/23 11:26:58;;;;;;;7.25;3.97;;;19.40;99.90;;;;;;5046738;28;20041;-81
2023/04/23 11:29:26;;;;;;;8.73;3.92;;;19.50;99.90;;;;;;5053286;28;20033;-80
2023/04/23 11:31:54;;;;;;;6.30;3.85;;;19.30;99.90;;;;;;5064880;28;20033;-81
2023/04/23 11:34:21;;;;;;;8.02;3.83;;;19.90;99.90;;;;;;5070279;28;20044;-81
2023/04/23 11:36:50;;;;;;;6.90;3.38;;;20.00;93.60;;;;;;5050734;28;20182;-81
2023/04/23 11:39:18;;;;;;;7.13;3.45;;;19.90;99.90;;;;;;5069280;28;20036;-82
2023/04/23 11:41:45;;;;;;;6.65;3.30;;;19.80;97.10;;;;;;5032709;28;20037;-81
2023/04/23 11:44:11;;;;;;;9.75;3.92;;;19.90;68.60;;;;;;5049569;28;20060;-82
2023/04/23 11:46:40;;;;;;;9.05;4.18;;;20.00;94.00;;;;;;5050726;28;20049;-81
2023/04/23 11:49:08;;;;;;;10.65;3.80;;;20.20;65.60;;;;;;5035294;28;20037;-81
2023/04/23 11:51:35;;;;;;;4.70;2.85;;;20.50;70.90;;;;;;5039390;28;20362;-81
2023/04/23 11:54:04;;;;;;;5.55;2.88;;;20.90;65.40;;;;;;5033562;28;20091;-81
2023/04/23 11:56:34;;;;;;;5.25;2.88;;;20.30;10.80;;;;;;5071424;28;20405;-80
2023/04/23 11:59:04;;;;;;;3.97;2.70;;;20.20;18.00;;;;;;5067802;28;20396;-81
2023/04/23 12:01:48;;;;;;;4.03;2.40;;;19.90;11.30;;;;;;5069630;28;20048;-82
2023/04/23 12:04:24;;;;;;;5.60;3.03;;;19.70;10.30;;;;;;5067657;28;20044;-79
2023/04/23 12:06:51;;;;;;;6.38;2.67;;;19.80;18.00;;;;;;5059453;28;20037;-80
2023/04/23 12:09:20;;;;;;;6.07;2.85;;;20.80;43.40;;;;;;5022574;28;20032;-81
2023/04/23 12:11:46;;;;;;;5.07;2.38;;;20.90;22.70;;;;;;5059624;28;20037;-80
2023/04/23 12:14:14;;;;;;;4.28;2.20;;;20.80;8.00;;;;;;5033157;28;20061;-81
2023/04/23 12:16:45;;;;;;;3.20;1.80;;;20.40;1.00;;;;;;5033639;28;20044;-82
2023/04/23 12:19:19;;;;;;;3.08;1.70;;;20.40;1.00;;;;;;5036055;28;20048;-80
2023/04/23 12:21:55;;;;;;;4.28;1.85;;;20.70;1.00;;;;;;5068974;28;20043;-81
2023/04/23 12:24:26;;;;;;;2.67;1.70;;;21.20;1.00;;;;;;5077299;28;20029;-80
2023/04/23 12:26:53;;;;;;;6.32;2.08;;;21.50;1.00;;;;;;5053126;28;20049;-81
2023/04/23 12:29:21;;;;;;;6.03;1.92;;;21.30;1.00;;;;;;5033016;28;20037;-81
2023/04/23 12:31:53;;;;;;;3.00;1.92;;;21.20;1.00;;;;;;5048898;28;20028;-81
2023/04/23 12:34:23;;;;;;;4.05;1.85;;;20.90;1.00;;;;;;5045401;28;20050;-81